KAUS/AUS METAR and TAF weather

Enter ICAO airport designator
Station Type Date Time Source
KAUS METAR 2018/10/19 15:53 UTC NOAA

KAUS 191553Z 36007KT 10SM OVC006 18/16 A3020 RMK AO2 SLP222 T01780161


Station Type Date Time Source
KAUS Decoded METAR 2018/10/19 15:53 UTC NOAA

AUSTIN-BERGSTROM INTERNATIONAL AIRPORT, TX, United States (KAUS) 30-11N 097-41W 172M
Oct 19, 2018 - 11:53 AM EDT / 2018.10.19 1553 UTC
Wind: from the N (360 degrees) at 8 MPH (7 KT):0
Visibility: 10 mile(s):0
Sky conditions: overcast
Temperature: 64.0 F (17.8 C)
Dew Point: 61.0 F (16.1 C)
Relative Humidity: 89%
Pressure (altimeter): 30.2 in. Hg (1022 hPa)
ob: KAUS 191553Z 36007KT 10SM OVC006 18/16 A3020 RMK AO2 SLP222 T01780161
cycle: 16

Station Type Date Time Source
KAUS TAF 2018/10/19 16:58 UTC NOAA

TAF
AMD KAUS 191557Z 1916/2018 35006KT 6SM BR VCSH BKN005 OVC010
TEMPO 1916/1919 1SM RA BR


Example: see airport list